Time;durP1;ratioP1;P1;durP2;ratioP2;P2;SDS_P1;SDS_P2;PMS_P1;PMS_P2;Temp;Humidity;BMP_temperature;BMP_pressure;BME280_temperature;BME280_humidity;BME280_pressure;Samples;Min_cycle;Max_cycle;Signal;HPM_P1;HPM_P2
2022/01/28 00:00:49;;;;;;;16.35;9.48;;;3.10;40.70;;;;;;7356333;19;20010;-62
2022/01/28 00:03:21;;;;;;;17.48;10.25;;;3.10;40.60;;;;;;7354652;19;20015;-62
2022/01/28 00:05:51;;;;;;;16.77;9.77;;;3.10;40.60;;;;;;7358731;19;20013;-63
2022/01/28 00:08:21;;;;;;;16.70;9.45;;;3.10;39.80;;;;;;7353487;19;20092;-63
2022/01/28 00:10:52;;;;;;;17.40;9.23;;;3.10;39.80;;;;;;7377203;19;20030;-63
2022/01/28 00:13:27;;;;;;;17.20;9.30;;;3.10;39.50;;;;;;7359946;19;20042;-63
2022/01/28 00:38:09;;;;;;;14.98;8.57;;;3.40;36.50;;;;;;7347711;19;20014;-63
2022/01/28 00:40:39;;;;;;;16.80;9.40;;;3.30;36.60;;;;;;7377303;19;20019;-68
2022/01/28 00:43:09;;;;;;;14.32;8.63;;;3.30;36.90;;;;;;7380623;19;20044;-63
2022/01/28 00:45:39;;;;;;;15.98;9.18;;;3.30;37.20;;;;;;7352530;19;20035;-63
2022/01/28 00:48:12;;;;;;;14.63;8.95;;;3.30;36.50;;;;;;7353306;19;20006;-63
2022/01/28 00:50:44;;;;;;;15.32;9.63;;;3.40;37.20;;;;;;7362603;19;20016;-64
2022/01/28 00:53:15;;;;;;;17.15;10.52;;;3.40;36.70;;;;;;7364818;19;20098;-64
2022/01/28 00:55:45;;;;;;;14.40;8.88;;;3.40;36.80;;;;;;7363996;19;20026;-64
2022/01/28 00:58:15;;;;;;;15.82;9.18;;;3.40;36.90;;;;;;7376869;19;20015;-64
2022/01/28 01:00:45;;;;;;;15.80;9.23;;;3.30;36.10;;;;;;7362088;19;20061;-64
2022/01/28 01:03:15;;;;;;;11.88;7.63;;;3.30;35.90;;;;;;7364151;19;20074;-64
2022/01/28 01:05:47;;;;;;;14.70;8.60;;;3.30;36.30;;;;;;7365701;19;20014;-64
2022/01/28 01:08:17;;;;;;;15.18;9.73;;;3.30;35.80;;;;;;7355739;19;20392;-64
2022/01/28 01:10:49;;;;;;;12.00;8.02;;;3.30;35.00;;;;;;7380567;19;20044;-64
2022/01/28 01:13:20;;;;;;;15.10;8.15;;;3.30;35.40;;;;;;7364181;19;20013;-62
2022/01/28 01:15:55;;;;;;;16.20;9.18;;;3.30;35.20;;;;;;7363865;19;20010;-65
2022/01/28 01:18:34;;;;;;;14.98;8.63;;;3.30;35.60;;;;;;7356627;19;20118;-63
2022/01/28 01:21:10;;;;;;;15.18;9.18;;;3.10;35.80;;;;;;7358562;19;20453;-64
2022/01/28 01:23:49;;;;;;;14.95;9.25;;;3.10;35.40;;;;;;7364028;19;20071;-64
2022/01/28 01:26:27;;;;;;;17.77;9.60;;;3.10;35.80;;;;;;7358859;19;20003;-63
2022/01/28 01:28:57;;;;;;;15.27;8.70;;;3.00;36.20;;;;;;7359212;19;20398;-64
2022/01/28 01:31:27;;;;;;;17.38;10.38;;;3.00;36.40;;;;;;7384256;19;20029;-64
2022/01/28 01:34:03;;;;;;;17.52;9.48;;;3.00;36.60;;;;;;7363138;19;20007;-63
2022/01/28 01:36:38;;;;;;;16.00;9.80;;;2.90;37.40;;;;;;7362432;19;20015;-63
2022/01/28 01:39:10;;;;;;;19.23;9.82;;;2.90;37.50;;;;;;7360381;19;20458;-63
2022/01/28 01:41:49;;;;;;;19.05;9.82;;;2.80;37.50;;;;;;7365962;19;20014;-63
2022/01/28 01:44:33;;;;;;;18.27;10.25;;;2.80;37.70;;;;;;7366276;19;20011;-62
2022/01/28 01:52:01;;;;;;;20.70;11.10;;;2.80;37.80;;;;;;7361738;19;20015;-62
2022/01/28 01:52:56;;;;;;;24.38;10.48;;;2.70;38.70;;;;;;7385870;19;20018;-63
2022/01/28 01:55:26;;;;;;;18.00;10.45;;;2.70;38.70;;;;;;7363008;19;20014;-62
2022/01/28 01:57:56;;;;;;;18.00;9.82;;;2.70;38.90;;;;;;7356136;19;20074;-63
2022/01/28 02:00:26;;;;;;;18.73;10.10;;;2.70;38.90;;;;;;7366566;19;20015;-63
2022/01/28 02:02:56;;;;;;;18.48;9.30;;;2.70;38.60;;;;;;7364471;19;20395;-62
2022/01/28 02:05:26;;;;;;;19.33;9.68;;;2.60;38.70;;;;;;7364239;19;20011;-62
2022/01/28 02:08:05;;;;;;;16.35;9.25;;;2.60;38.60;;;;;;7358030;19;20027;-63
2022/01/28 02:10:36;;;;;;;21.55;9.88;;;2.60;39.20;;;;;;7386185;19;20010;-62
2022/01/28 02:13:06;;;;;;;15.07;9.40;;;2.60;39.10;;;;;;7366834;19;20040;-62
2022/01/28 02:15:36;;;;;;;19.90;9.13;;;2.60;39.50;;;;;;7361364;19;20014;-63
2022/01/28 02:21:08;;;;;;;17.52;10.05;;;2.50;40.00;;;;;;7359136;19;20106;-63
2022/01/28 02:23:39;;;;;;;18.70;10.15;;;2.50;40.10;;;;;;7365441;19;20149;-63
2022/01/28 02:26:13;;;;;;;15.35;9.23;;;2.60;39.40;;;;;;7365386;19;20015;-63
2022/01/28 02:28:46;;;;;;;14.80;8.93;;;2.60;38.40;;;;;;7357752;19;20538;-64
2022/01/28 02:31:21;;;;;;;15.57;8.82;;;2.60;37.40;;;;;;7385394;19;20110;-63
2022/01/28 02:33:53;;;;;;;13.63;8.50;;;2.60;37.90;;;;;;7362681;19;20386;-64
2022/01/28 02:36:26;;;;;;;14.82;9.13;;;2.70;37.30;;;;;;7363134;19;20014;-63
2022/01/28 02:38:58;;;;;;;15.75;8.63;;;2.70;37.20;;;;;;7358536;19;20011;-63
2022/01/28 02:41:32;;;;;;;17.77;9.32;;;2.80;36.60;;;;;;7362825;19;20037;-63
2022/01/28 02:44:18;;;;;;;13.43;8.02;;;2.80;36.20;;;;;;7363761;19;20027;-62
2022/01/28 02:46:58;;;;;;;16.75;8.85;;;2.70;36.20;;;;;;7362051;19;20485;-63
2022/01/28 02:49:35;;;;;;;17.33;9.57;;;2.80;36.30;;;;;;7381233;19;20014;-64
2022/01/28 02:52:17;;;;;;;17.83;9.20;;;2.70;36.70;;;;;;7366168;19;20014;-62
2022/01/28 02:54:49;;;;;;;17.35;10.00;;;2.80;36.40;;;;;;7361594;19;20041;-62
2022/01/28 02:57:25;;;;;;;15.75;8.32;;;2.80;36.10;;;;;;7356780;19;20023;-62
2022/01/28 02:59:55;;;;;;;18.45;9.95;;;2.80;36.20;;;;;;7359486;19;20008;-62
2022/01/28 03:02:25;;;;;;;15.77;9.75;;;2.80;35.10;;;;;;7364962;19;20553;-62
2022/01/28 03:05:20;;;;;;;20.50;10.18;;;2.80;34.90;;;;;;7364495;19;20093;-63
2022/01/28 03:07:53;;;;;;;15.25;9.38;;;2.80;35.00;;;;;;7356387;19;20026;-63
2022/01/28 03:10:40;;;;;;;14.55;8.52;;;2.80;34.70;;;;;;7382823;19;20328;-63
2022/01/28 03:16:10;;;;;;;15.45;9.32;;;2.80;34.50;;;;;;7357265;19;20062;-64
2022/01/28 03:18:52;;;;;;;14.13;9.10;;;2.80;34.40;;;;;;7354702;19;20084;-63
2022/01/28 03:21:42;;;;;;;16.05;8.38;;;2.80;34.40;;;;;;7364760;19;20010;-63
2022/01/28 03:24:14;;;;;;;15.75;9.30;;;2.90;33.60;;;;;;7365789;19;20040;-62
2022/01/28 03:26:46;;;;;;;14.93;8.77;;;2.90;33.50;;;;;;7359187;19;20018;-62
2022/01/28 03:29:16;;;;;;;19.58;10.27;;;2.90;33.10;;;;;;7357224;19;20007;-62
2022/01/28 03:31:46;;;;;;;16.75;9.68;;;2.90;32.40;;;;;;7363282;19;20572;-62
2022/01/28 03:34:16;;;;;;;19.27;10.25;;;2.90;32.50;;;;;;7386750;19;20105;-63
2022/01/28 03:36:46;;;;;;;19.58;10.57;;;3.00;32.20;;;;;;7359830;19;20093;-63
2022/01/28 03:39:19;;;;;;;19.63;10.40;;;3.00;32.20;;;;;;7356079;19;20103;-62
2022/01/28 03:41:48;;;;;;;18.90;9.38;;;3.00;32.20;;;;;;7362049;19;20111;-64
2022/01/28 03:44:18;;;;;;;18.65;9.73;;;3.00;32.20;;;;;;7364764;19;20013;-63
2022/01/28 03:46:48;;;;;;;19.50;10.95;;;3.10;32.20;;;;;;7361068;19;20014;-62
2022/01/28 03:49:18;;;;;;;18.55;9.85;;;3.10;32.20;;;;;;7377257;19;20014;-63
2022/01/28 03:51:48;;;;;;;15.35;9.18;;;3.10;32.20;;;;;;7361495;19;20100;-63
2022/01/28 03:54:20;;;;;;;14.35;8.95;;;3.10;31.20;;;;;;7364023;19;20082;-63
2022/01/28 03:56:51;;;;;;;18.35;9.88;;;3.20;31.50;;;;;;7359118;19;20509;-63
2022/01/28 03:59:20;;;;;;;15.38;9.70;;;3.20;30.60;;;;;;7356815;19;20006;-63
2022/01/28 04:01:51;;;;;;;19.38;9.95;;;3.20;30.20;;;;;;7360625;19;20018;-63
2022/01/28 04:12:45;;;;;;;;;;;3.00;31.80;;;;;;7363847;19;20535;-64
2022/01/28 04:15:35;;;;;;;19.35;9.95;;;3.00;32.10;;;;;;7363585;19;19932;-63
2022/01/28 04:18:05;;;;;;;16.92;9.02;;;3.00;32.20;;;;;;7350717;19;20077;-61
2022/01/28 04:20:35;;;;;;;17.23;9.43;;;2.90;33.10;;;;;;7361572;19;20018;-61
2022/01/28 04:23:05;;;;;;;16.02;9.02;;;3.00;32.20;;;;;;7370121;19;20521;-63
2022/01/28 04:25:38;;;;;;;17.38;10.50;;;2.90;32.30;;;;;;7392855;19;20369;-63
2022/01/28 04:28:07;;;;;;;17.38;9.77;;;2.80;33.40;;;;;;7356349;19;20010;-63
2022/01/28 04:30:37;;;;;;;22.33;10.00;;;2.80;34.30;;;;;;7366917;19;20073;-63
2022/01/28 04:33:12;;;;;;;19.20;10.10;;;2.80;33.70;;;;;;7369809;19;20011;-63
2022/01/28 04:35:45;;;;;;;19.95;10.57;;;2.80;33.80;;;;;;7371526;19;20006;-63
2022/01/28 04:38:27;;;;;;;21.13;10.68;;;2.80;33.70;;;;;;7357812;19;20015;-61
2022/01/28 04:41:07;;;;;;;19.67;10.38;;;2.70;33.70;;;;;;7366383;19;20023;-62
2022/01/28 04:43:43;;;;;;;18.92;10.70;;;2.70;35.10;;;;;;7389724;19;20011;-62
2022/01/28 04:46:22;;;;;;;17.15;10.38;;;2.70;35.60;;;;;;7367139;19;20018;-62
2022/01/28 04:48:59;;;;;;;21.38;11.40;;;2.60;35.80;;;;;;7360866;19;20410;-62
2022/01/28 04:51:45;;;;;;;19.38;11.00;;;2.60;36.10;;;;;;7369312;19;20124;-63
2022/01/28 04:54:34;;;;;;;20.52;11.43;;;2.60;37.40;;;;;;7368214;19;20492;-62
2022/01/28 04:57:18;;;;;;;22.13;11.13;;;2.50;37.80;;;;;;7361338;19;20086;-62
2022/01/28 05:00:00;;;;;;;26.90;12.65;;;2.50;39.20;;;;;;7364810;19;20016;-62
2022/01/28 05:02:59;;;;;;;18.85;10.80;;;2.40;38.90;;;;;;7369263;19;20003;-62
2022/01/28 05:09:00;;;;;;;21.55;11.80;;;2.40;40.00;;;;;;7357237;19;20104;-63
2022/01/28 05:11:43;;;;;;;26.42;13.77;;;2.40;40.00;;;;;;7368412;19;20477;-63
2022/01/28 05:14:42;;;;;;;24.65;12.82;;;2.30;40.50;;;;;;7367096;19;20073;-61
2022/01/28 05:28:18;;;;;;;26.80;13.80;;;2.30;40.00;;;;;;7356571;19;20018;-62
2022/01/28 05:30:51;;;;;;;30.70;15.27;;;2.30;40.40;;;;;;7366409;19;20264;-63
2022/01/28 05:33:21;;;;;;;27.88;13.68;;;2.40;40.50;;;;;;7367387;19;20010;-62
2022/01/28 05:35:51;;;;;;;24.50;13.00;;;2.40;41.00;;;;;;7367319;19;20015;-62
2022/01/28 05:38:21;;;;;;;25.40;13.30;;;2.40;41.30;;;;;;7356321;19;20029;-62
2022/01/28 05:40:51;;;;;;;20.85;11.68;;;2.40;41.20;;;;;;7367168;19;20447;-62
2022/01/28 05:43:21;;;;;;;25.60;12.27;;;2.30;40.70;;;;;;7388989;19;20022;-62
2022/01/28 05:45:54;;;;;;;24.63;11.50;;;2.30;40.40;;;;;;7364770;19;20017;-61
2022/01/28 05:48:24;;;;;;;25.60;12.85;;;2.30;40.30;;;;;;7356552;19;20010;-62
2022/01/28 05:50:58;;;;;;;27.55;12.23;;;2.30;40.00;;;;;;7365852;19;20010;-62
2022/01/28 05:53:28;;;;;;;23.45;11.82;;;2.20;39.90;;;;;;7366642;19;20013;-62
2022/01/28 05:55:58;;;;;;;22.20;11.57;;;2.30;40.90;;;;;;7368440;19;20032;-64
2022/01/28 05:58:28;;;;;;;22.63;12.43;;;2.20;39.90;;;;;;7378709;19;20031;-63
2022/01/28 06:01:00;;;;;;;26.73;12.05;;;2.30;40.10;;;;;;7364145;19;20097;-63
2022/01/28 06:03:30;;;;;;;25.75;13.15;;;2.30;39.90;;;;;;7364763;19;20039;-62
2022/01/28 06:06:00;;;;;;;23.42;12.18;;;2.30;39.90;;;;;;7367601;19;20010;-62
2022/01/28 06:08:30;;;;;;;26.17;12.95;;;2.30;39.90;;;;;;7354494;19;20018;-62
2022/01/28 06:11:00;;;;;;;27.85;13.43;;;2.40;39.30;;;;;;7364469;19;20027;-63
2022/01/28 06:13:30;;;;;;;26.70;12.88;;;2.30;39.30;;;;;;7385683;19;20030;-63
2022/01/28 06:16:02;;;;;;;31.77;14.18;;;2.40;38.70;;;;;;7366738;19;20097;-62
2022/01/28 06:18:33;;;;;;;25.02;13.13;;;2.40;38.80;;;;;;7353473;19;20035;-62
2022/01/28 06:21:02;;;;;;;25.92;12.70;;;2.30;38.60;;;;;;7364125;19;20549;-62
2022/01/28 06:23:33;;;;;;;25.25;12.52;;;2.30;39.80;;;;;;7363844;19;20018;-62
2022/01/28 06:26:03;;;;;;;26.48;12.27;;;2.30;39.90;;;;;;7365587;19;20011;-62
2022/01/28 06:28:34;;;;;;;26.20;13.70;;;2.30;40.00;;;;;;7375979;19;20018;-63
2022/01/28 06:31:06;;;;;;;26.77;13.00;;;2.30;40.00;;;;;;7361896;19;20015;-62
2022/01/28 06:33:36;;;;;;;25.50;12.75;;;2.30;40.00;;;;;;7363164;19;20307;-62
2022/01/28 06:36:07;;;;;;;29.35;13.43;;;2.30;40.00;;;;;;7365507;19;20025;-61
2022/01/28 06:38:36;;;;;;;32.15;13.98;;;2.30;40.30;;;;;;7355062;19;20014;-62
2022/01/28 06:41:06;;;;;;;29.02;13.75;;;2.30;40.00;;;;;;7362489;19;20041;-63
2022/01/28 06:43:41;;;;;;;29.10;15.57;;;2.30;40.90;;;;;;7362969;19;20022;-62
2022/01/28 06:46:13;;;;;;;30.15;14.77;;;2.30;40.80;;;;;;7383781;19;20078;-62
2022/01/28 06:48:43;;;;;;;30.85;14.60;;;2.30;41.50;;;;;;7354066;19;20396;-62
2022/01/28 06:51:13;;;;;;;31.55;14.82;;;2.30;41.30;;;;;;7360120;19;20017;-63
2022/01/28 06:53:43;;;;;;;27.30;13.75;;;2.30;41.60;;;;;;7361728;19;20653;-63
2022/01/28 06:56:13;;;;;;;26.48;13.48;;;2.30;41.10;;;;;;7361102;19;20779;-63
2022/01/28 06:58:43;;;;;;;24.67;13.55;;;2.30;40.70;;;;;;7354821;19;20101;-64
2022/01/28 07:01:16;;;;;;;29.33;14.20;;;2.30;40.40;;;;;;7385765;19;20050;-64
2022/01/28 07:03:46;;;;;;;25.92;12.98;;;2.30;40.50;;;;;;7364318;19;20013;-63
2022/01/28 07:06:16;;;;;;;26.48;13.00;;;2.30;40.40;;;;;;7362316;19;20053;-64
2022/01/28 07:08:46;;;;;;;23.55;12.63;;;2.30;40.10;;;;;;7356780;19;20011;-63
2022/01/28 07:11:17;;;;;;;26.38;12.75;;;2.30;39.90;;;;;;7361899;19;20014;-63
2022/01/28 07:13:47;;;;;;;27.83;13.27;;;2.30;40.00;;;;;;7362171;19;20492;-65
2022/01/28 07:16:19;;;;;;;26.00;12.85;;;2.30;40.00;;;;;;7381909;19;20638;-63
2022/01/28 07:18:49;;;;;;;23.77;12.80;;;2.30;40.00;;;;;;7354211;19;20097;-65
2022/01/28 07:21:19;;;;;;;33.40;13.13;;;2.40;39.70;;;;;;7360890;19;20014;-63
2022/01/28 07:23:49;;;;;;;22.70;12.02;;;2.40;37.80;;;;;;7363930;19;20014;-63
2022/01/28 07:26:19;;;;;;;24.77;13.05;;;2.50;36.60;;;;;;7359314;19;20070;-63
2022/01/28 07:28:50;;;;;;;21.35;11.50;;;2.60;35.90;;;;;;7352522;19;20502;-64
2022/01/28 07:31:22;;;;;;;23.98;11.82;;;2.60;35.60;;;;;;7381059;19;20053;-64
2022/01/28 07:33:53;;;;;;;23.80;11.57;;;2.70;35.00;;;;;;7361970;19;20010;-64
2022/01/28 07:36:22;;;;;;;23.50;11.15;;;2.80;34.10;;;;;;7358460;19;20053;-63
2022/01/28 07:38:52;;;;;;;26.15;12.00;;;2.80;33.30;;;;;;7354699;19;20079;-63
2022/01/28 07:41:22;;;;;;;22.15;11.85;;;2.80;32.90;;;;;;7362026;19;20070;-64
2022/01/28 07:43:52;;;;;;;18.67;9.95;;;2.90;32.60;;;;;;7360836;19;20350;-63
2022/01/28 07:46:25;;;;;;;27.38;11.50;;;3.00;32.10;;;;;;7381860;19;20010;-63
2022/01/28 07:48:55;;;;;;;23.23;12.48;;;3.00;32.10;;;;;;7353347;19;20423;-64
2022/01/28 07:51:24;;;;;;;27.00;11.48;;;3.00;32.20;;;;;;7358401;19;20048;-63
2022/01/28 07:53:54;;;;;;;18.83;11.82;;;3.00;32.10;;;;;;7360396;19;20086;-63
2022/01/28 07:56:25;;;;;;;25.92;11.82;;;3.00;32.10;;;;;;7359112;19;20084;-63
2022/01/28 07:58:54;;;;;;;22.23;12.30;;;3.00;31.10;;;;;;7355355;19;20458;-63
2022/01/28 08:01:27;;;;;;;22.30;12.55;;;3.10;30.70;;;;;;7381392;19;20513;-64
2022/01/28 08:03:57;;;;;;;25.35;12.15;;;3.10;30.60;;;;;;7359627;19;20435;-63
2022/01/28 08:06:29;;;;;;;21.08;11.40;;;3.10;30.50;;;;;;7353781;19;20022;-63
2022/01/28 08:08:59;;;;;;;24.02;12.40;;;3.10;30.40;;;;;;7355718;19;20086;-64
2022/01/28 08:11:29;;;;;;;19.23;10.98;;;3.10;30.00;;;;;;7359019;19;20022;-64
2022/01/28 08:13:59;;;;;;;19.45;10.35;;;3.10;29.90;;;;;;7359687;19;20254;-65
2022/01/28 08:16:32;;;;;;;22.35;10.80;;;3.20;29.80;;;;;;7377108;19;20044;-64
2022/01/28 08:19:01;;;;;;;21.10;10.82;;;3.20;29.50;;;;;;7354415;19;20019;-65
2022/01/28 08:21:32;;;;;;;19.90;10.43;;;3.20;28.60;;;;;;7358445;19;20010;-64
2022/01/28 08:24:01;;;;;;;18.77;10.80;;;3.30;28.70;;;;;;7360569;19;20007;-63
2022/01/28 08:26:32;;;;;;;24.60;12.70;;;3.30;27.70;;;;;;7356284;19;20011;-63
2022/01/28 08:29:02;;;;;;;17.35;9.57;;;3.60;26.10;;;;;;7354142;19;20086;-63
2022/01/28 08:31:34;;;;;;;16.70;10.27;;;3.50;25.60;;;;;;7382562;19;20475;-64
2022/01/28 08:34:04;;;;;;;20.17;10.55;;;3.60;25.70;;;;;;7358785;19;20569;-63
2022/01/28 08:36:34;;;;;;;17.25;9.15;;;3.60;25.50;;;;;;7352410;19;20032;-64
2022/01/28 08:39:06;;;;;;;19.10;10.63;;;3.60;25.50;;;;;;7351621;19;20003;-64
2022/01/28 08:41:40;;;;;;;17.48;8.88;;;3.60;25.60;;;;;;7359864;19;20028;-64
2022/01/28 08:44:10;;;;;;;15.98;8.50;;;3.60;25.50;;;;;;7361342;19;20019;-63
2022/01/28 08:46:42;;;;;;;21.38;9.38;;;3.70;23.70;;;;;;7368225;19;20015;-64
2022/01/28 08:49:12;;;;;;;17.05;8.98;;;3.70;22.80;;;;;;7373302;19;20029;-63
2022/01/28 08:51:43;;;;;;;17.27;9.30;;;3.80;22.30;;;;;;7357566;19;20466;-62
2022/01/28 08:54:13;;;;;;;17.02;8.95;;;3.80;21.50;;;;;;7360776;19;20003;-64
2022/01/28 08:56:43;;;;;;;22.17;10.43;;;3.80;21.00;;;;;;7356528;19;20035;-63
2022/01/28 08:59:33;;;;;;;17.95;9.60;;;3.90;21.40;;;;;;7355229;19;20002;-63
2022/01/28 09:02:06;;;;;;;17.85;8.98;;;3.90;20.60;;;;;;7357820;19;20023;-63
2022/01/28 09:04:36;;;;;;;14.27;8.55;;;3.90;20.20;;;;;;7383119;19;20035;-64
2022/01/28 09:07:07;;;;;;;16.75;8.63;;;4.00;20.20;;;;;;7356004;19;20372;-63
2022/01/28 09:09:47;;;;;;;18.65;8.98;;;4.00;19.90;;;;;;7361328;19;20014;-63
2022/01/28 09:12:33;;;;;;;18.67;8.63;;;4.10;19.40;;;;;;7363683;19;20006;-62
2022/01/28 09:15:03;;;;;;;16.05;8.15;;;4.20;19.50;;;;;;7366087;19;19999;-62
2022/01/28 09:17:56;;;;;;;13.23;7.68;;;4.40;18.60;;;;;;7358636;19;20090;-63
2022/01/28 09:20:30;;;;;;;13.30;6.82;;;4.50;16.70;;;;;;7366725;19;20040;-64
2022/01/28 09:23:01;;;;;;;16.13;8.25;;;4.50;16.40;;;;;;7367766;19;20543;-62
2022/01/28 09:25:31;;;;;;;14.57;8.15;;;4.50;15.80;;;;;;7388023;19;20018;-62
2022/01/28 09:28:01;;;;;;;13.43;7.35;;;4.50;15.80;;;;;;7356780;19;20124;-62
2022/01/28 09:30:31;;;;;;;18.65;7.78;;;4.70;15.90;;;;;;7365330;19;20396;-62
2022/01/28 09:33:04;;;;;;;14.63;7.00;;;4.70;14.90;;;;;;7365998;19;20002;-62
2022/01/28 09:35:35;;;;;;;13.80;6.68;;;4.80;14.30;;;;;;7364605;19;20070;-62
2022/01/28 09:38:06;;;;;;;12.63;6.22;;;5.00;13.50;;;;;;7358465;19;20017;-62
2022/01/28 09:40:37;;;;;;;16.92;6.78;;;4.80;12.10;;;;;;7385293;19;20077;-64
2022/01/28 09:43:08;;;;;;;13.43;7.05;;;4.90;12.80;;;;;;7365003;19;20014;-63
2022/01/28 09:45:38;;;;;;;12.85;6.75;;;5.00;12.00;;;;;;7365200;19;20571;-63
2022/01/28 09:48:13;;;;;;;15.85;7.22;;;5.10;12.60;;;;;;7353975;19;20033;-62
2022/01/28 09:50:44;;;;;;;16.50;6.72;;;5.10;12.40;;;;;;7365856;19;20031;-64
2022/01/28 09:53:14;;;;;;;14.90;7.40;;;5.00;12.70;;;;;;7366311;19;20041;-62
2022/01/28 09:55:45;;;;;;;13.80;7.45;;;4.70;12.80;;;;;;7366272;19;20478;-63
2022/01/28 09:58:15;;;;;;;14.70;7.05;;;4.80;14.10;;;;;;7376924;19;20039;-62
2022/01/28 10:00:46;;;;;;;13.55;7.40;;;4.70;13.70;;;;;;7364853;19;20006;-63
2022/01/28 10:03:21;;;;;;;16.83;8.27;;;4.80;14.00;;;;;;7357856;19;20075;-62
2022/01/28 10:05:52;;;;;;;13.57;7.70;;;4.70;13.90;;;;;;7366549;19;20014;-63
2022/01/28 10:08:24;;;;;;;12.93;6.65;;;4.80;13.90;;;;;;7356348;19;20050;-62
2022/01/28 10:11:03;;;;;;;16.83;7.43;;;4.90;13.60;;;;;;7362802;19;20014;-63
2022/01/28 10:13:39;;;;;;;13.00;6.70;;;4.80;12.50;;;;;;7383251;19;20007;-63
2022/01/28 10:16:12;;;;;;;16.35;7.97;;;4.90;11.90;;;;;;7365603;19;20082;-63
2022/01/28 10:18:52;;;;;;;14.80;8.23;;;5.20;12.30;;;;;;7356532;19;20014;-63
2022/01/28 10:21:27;;;;;;;17.25;8.70;;;5.30;11.40;;;;;;7361777;19;20094;-63
2022/01/28 10:24:00;;;;;;;13.00;7.63;;;5.40;11.20;;;;;;7361947;19;20116;-62
2022/01/28 10:26:31;;;;;;;14.40;7.78;;;5.20;9.90;;;;;;7361331;19;20010;-63
2022/01/28 10:29:05;;;;;;;13.50;7.60;;;5.20;11.10;;;;;;7357802;19;20489;-64
2022/01/28 10:31:37;;;;;;;14.75;7.68;;;5.20;10.50;;;;;;7386627;19;20466;-63
2022/01/28 10:34:21;;;;;;;17.30;7.07;;;5.20;10.60;;;;;;7366124;19;20014;-63
2022/01/28 10:36:53;;;;;;;16.70;7.53;;;5.40;10.70;;;;;;7355182;19;20014;-64
2022/01/28 10:39:24;;;;;;;17.08;7.47;;;5.40;9.40;;;;;;7361011;19;20017;-64
2022/01/28 10:41:57;;;;;;;11.25;6.53;;;5.50;10.30;;;;;;7361127;19;20035;-63
2022/01/28 10:44:31;;;;;;;18.92;8.70;;;5.50;9.10;;;;;;7364190;19;20086;-63
2022/01/28 10:47:03;;;;;;;11.80;6.80;;;5.60;9.40;;;;;;7359777;19;20091;-63
2022/01/28 10:49:37;;;;;;;12.70;6.32;;;5.50;7.90;;;;;;7381334;19;20384;-62
2022/01/28 10:52:11;;;;;;;10.73;6.20;;;5.80;7.80;;;;;;7360611;19;20011;-64
2022/01/28 10:54:42;;;;;;;14.53;6.83;;;5.70;7.40;;;;;;7363537;19;20040;-64
2022/01/28 10:57:12;;;;;;;12.10;6.38;;;5.70;7.80;;;;;;7357219;19;20252;-64
2022/01/28 10:59:43;;;;;;;12.43;6.57;;;5.70;7.20;;;;;;7358820;19;20781;-62
2022/01/28 11:02:13;;;;;;;14.43;6.63;;;5.80;6.00;;;;;;7360899;19;20011;-62
2022/01/28 11:04:46;;;;;;;14.13;6.05;;;5.70;6.10;;;;;;7364382;19;20094;-65
2022/01/28 11:07:16;;;;;;;11.23;6.25;;;5.60;6.10;;;;;;7375886;19;20098;-63
2022/01/28 11:09:48;;;;;;;14.52;6.43;;;5.70;6.60;;;;;;7360897;19;20021;-64
2022/01/28 11:12:19;;;;;;;14.30;6.22;;;5.70;6.20;;;;;;7360468;19;20596;-65
2022/01/28 11:14:51;;;;;;;13.60;6.15;;;5.80;6.50;;;;;;7365131;19;20035;-64
2022/01/28 11:17:21;;;;;;;13.77;6.60;;;5.80;5.80;;;;;;7354459;19;20090;-64
2022/01/28 11:19:55;;;;;;;13.63;6.68;;;5.80;5.90;;;;;;7360003;19;20010;-64
2022/01/28 11:22:52;;;;;;;11.18;6.25;;;5.70;6.70;;;;;;7381795;19;20037;-64
2022/01/28 11:25:46;;;;;;;16.38;5.30;;;5.60;6.70;;;;;;7363500;19;20038;-62
2022/01/28 11:28:16;;;;;;;10.90;5.03;;;5.60;5.70;;;;;;7354579;19;20013;-64
2022/01/28 11:30:51;;;;;;;9.82;4.85;;;5.80;5.20;;;;;;7363014;19;20035;-64
2022/01/28 11:33:21;;;;;;;12.05;5.90;;;5.60;5.60;;;;;;7361878;19;20014;-63
2022/01/28 11:36:06;;;;;;;8.95;4.80;;;5.50;5.60;;;;;;7362468;19;20041;-63
2022/01/28 11:38:46;;;;;;;10.57;5.57;;;5.50;7.00;;;;;;7353922;19;20109;-63
2022/01/28 11:41:25;;;;;;;12.75;5.43;;;5.40;7.60;;;;;;7361341;19;20012;-63
2022/01/28 11:43:56;;;;;;;9.82;5.57;;;5.20;7.70;;;;;;7362059;19;20022;-64
2022/01/28 11:46:30;;;;;;;12.73;5.63;;;5.20;7.90;;;;;;7378065;19;20344;-63
2022/01/28 11:49:22;;;;;;;12.70;5.72;;;5.40;8.20;;;;;;7355286;19;20045;-63
2022/01/28 11:51:55;;;;;;;11.02;5.68;;;5.50;7.90;;;;;;7359724;19;20633;-63
2022/01/28 11:54:40;;;;;;;10.95;5.97;;;5.50;7.60;;;;;;7359246;19;20069;-64
2022/01/28 11:57:18;;;;;;;11.65;6.13;;;5.40;7.60;;;;;;7353967;19;20018;-62
2022/01/28 11:59:48;;;;;;;14.70;6.00;;;5.50;5.70;;;;;;7361975;19;20557;-63
2022/01/28 12:02:22;;;;;;;11.82;5.72;;;5.50;6.20;;;;;;7359468;19;20015;-63
2022/01/28 12:05:42;;;;;;;11.70;4.85;;;5.50;6.10;;;;;;7356583;19;20015;-64
2022/01/28 12:08:17;;;;;;;12.45;6.50;;;5.40;4.00;;;;;;7353254;19;20007;-63
2022/01/28 12:10:50;;;;;;;15.27;5.50;;;5.50;4.40;;;;;;7361448;19;20016;-64
2022/01/28 12:13:21;;;;;;;11.25;4.53;;;5.60;3.20;;;;;;7383061;19;20042;-63
2022/01/28 12:16:11;;;;;;;10.77;4.78;;;5.50;1.00;;;;;;7363292;19;20463;-64
2022/01/28 12:18:53;;;;;;;9.30;4.50;;;5.70;2.00;;;;;;7352778;19;20018;-65
2022/01/28 12:21:26;;;;;;;10.57;4.35;;;5.70;2.00;;;;;;7362417;19;20384;-64
2022/01/28 12:24:35;;;;;;;10.50;4.90;;;5.80;2.10;;;;;;7356687;19;20011;-62
2022/01/28 12:27:07;;;;;;;13.63;5.32;;;5.70;2.10;;;;;;7354657;19;20085;-63
2022/01/28 12:29:38;;;;;;;9.80;5.00;;;5.90;2.20;;;;;;7359096;19;20065;-64
2022/01/28 12:32:10;;;;;;;11.05;5.30;;;6.00;1.00;;;;;;7362584;19;20567;-64
2022/01/28 12:34:45;;;;;;;9.75;5.15;;;5.60;1.90;;;;;;7381916;19;20006;-64
2022/01/28 12:37:21;;;;;;;10.15;4.70;;;5.70;2.10;;;;;;7359587;19;20007;-63
2022/01/28 12:40:05;;;;;;;10.05;4.55;;;5.30;1.80;;;;;;7357647;19;20002;-62
2022/01/28 12:42:42;;;;;;;14.03;5.43;;;5.50;3.30;;;;;;7361145;19;20502;-64
2022/01/28 12:45:12;;;;;;;11.98;6.00;;;5.50;4.10;;;;;;7369151;19;20272;-64
2022/01/28 12:47:42;;;;;;;13.60;6.05;;;5.50;5.00;;;;;;7363768;19;20028;-64
2022/01/28 12:50:12;;;;;;;9.93;5.70;;;5.30;5.40;;;;;;7361526;19;20039;-64
2022/01/28 12:52:42;;;;;;;12.18;6.53;;;5.30;6.20;;;;;;7373207;19;20450;-65
2022/01/28 12:55:15;;;;;;;12.55;6.18;;;5.40;6.00;;;;;;7389814;19;20151;-63
2022/01/28 12:57:47;;;;;;;12.63;6.53;;;5.70;6.20;;;;;;7364164;19;20046;-64
2022/01/28 13:00:19;;;;;;;11.30;6.15;;;5.50;5.60;;;;;;7361324;19;20010;-64
2022/01/28 13:02:51;;;;;;;11.32;6.13;;;5.40;6.00;;;;;;7365839;19;20082;-62
2022/01/28 13:05:34;;;;;;;12.63;6.85;;;5.30;6.70;;;;;;7366416;19;20359;-64
2022/01/28 13:10:58;;;;;;;17.70;7.50;;;5.10;8.00;;;;;;7359369;19;20049;-64
2022/01/28 13:13:27;;;;;;;15.27;7.70;;;5.40;9.00;;;;;;7385012;19;20070;-63
2022/01/28 13:15:57;;;;;;;17.65;7.15;;;5.50;7.00;;;;;;7366674;19;20011;-64
2022/01/28 13:18:27;;;;;;;13.80;7.25;;;5.40;6.00;;;;;;7364390;19;20006;-64
2022/01/28 13:20:58;;;;;;;14.70;7.80;;;5.40;6.70;;;;;;7364143;19;20078;-65
2022/01/28 13:23:35;;;;;;;13.57;7.75;;;5.20;7.00;;;;;;7365930;19;20031;-63
2022/01/28 13:26:10;;;;;;;15.02;8.48;;;5.30;7.00;;;;;;7364572;19;20018;-64
2022/01/28 13:28:41;;;;;;;16.83;9.13;;;5.30;6.50;;;;;;7383660;19;20682;-62
2022/01/28 13:31:10;;;;;;;14.55;7.72;;;5.30;6.80;;;;;;7367577;19;20050;-63
2022/01/28 13:33:41;;;;;;;13.75;7.50;;;5.40;7.10;;;;;;7366238;19;20039;-63
2022/01/28 13:36:11;;;;;;;15.52;8.13;;;5.40;6.30;;;;;;7367029;19;20046;-63
2022/01/28 13:38:41;;;;;;;20.80;8.27;;;5.30;6.20;;;;;;7361487;19;20102;-64
2022/01/28 13:41:28;;;;;;;18.15;8.45;;;5.20;6.30;;;;;;7366482;19;20007;-65
2022/01/28 13:44:00;;;;;;;13.32;7.90;;;5.20;6.50;;;;;;7365184;19;20080;-64
2022/01/28 13:46:34;;;;;;;16.67;8.27;;;5.30;6.50;;;;;;7385673;19;20058;-64
2022/01/28 13:49:16;;;;;;;15.93;8.55;;;5.50;6.40;;;;;;7359248;19;20042;-64
2022/01/28 13:51:46;;;;;;;15.23;8.75;;;5.40;6.50;;;;;;7364959;19;20010;-64
2022/01/28 13:54:20;;;;;;;14.88;8.18;;;5.30;7.30;;;;;;7362783;19;20011;-63
2022/01/28 13:57:01;;;;;;;16.33;8.68;;;5.20;7.00;;;;;;7365217;19;20014;-64
2022/01/28 13:59:33;;;;;;;17.08;9.02;;;5.20;7.90;;;;;;7360588;19;20163;-63
2022/01/28 14:02:04;;;;;;;15.85;8.60;;;5.20;7.30;;;;;;7363343;19;20465;-63
2022/01/28 14:04:41;;;;;;;18.27;9.02;;;5.20;7.20;;;;;;7383669;19;20018;-63
2022/01/28 14:07:22;;;;;;;16.38;8.02;;;5.30;6.20;;;;;;7357744;19;20003;-65
2022/01/28 14:09:58;;;;;;;14.20;7.82;;;5.40;6.40;;;;;;7359671;19;20006;-65
2022/01/28 14:12:42;;;;;;;15.73;7.72;;;5.40;5.50;;;;;;7364673;19;20021;-64
2022/01/28 14:15:27;;;;;;;18.38;7.55;;;5.30;5.60;;;;;;7364696;19;20007;-63
2022/01/28 14:17:58;;;;;;;;;;;5.50;5.70;;;;;;7361987;19;20007;-64